Time;durP1;ratioP1;P1;durP2;ratioP2;P2;SDS_P1;SDS_P2;PMS_P1;PMS_P2;Temp;Humidity;BMP_temperature;BMP_pressure;BME280_temperature;BME280_humidity;BME280_pressure;Samples;Min_cycle;Max_cycle;Signal;HPM_P1;HPM_P2
2022/08/31 00:04:09;;;;;;;5.18;1.05;;;16.30;99.90;;;;;;5052668;28;20525;-73
2022/08/31 00:06:35;;;;;;;3.80;0.80;;;16.00;99.90;;;;;;5053334;28;20516;-73
2022/08/31 00:09:03;;;;;;;1.20;0.70;;;16.00;99.90;;;;;;5052803;28;20490;-73
2022/08/31 00:11:30;;;;;;;3.80;0.90;;;16.00;99.90;;;;;;5054283;28;20441;-73
2022/08/31 00:14:03;;;;;;;0.93;0.93;;;16.90;99.90;;;;;;5052731;28;20045;-73
2022/08/31 00:16:31;;;;;;;2.25;0.93;;;16.10;99.90;;;;;;5052597;28;20041;-73
2022/08/31 00:18:56;;;;;;;1.67;0.80;;;16.10;99.90;;;;;;5052429;28;20040;-73
2022/08/31 00:21:27;;;;;;;1.90;0.75;;;16.00;99.90;;;;;;5035912;28;20490;-73
2022/08/31 00:23:53;;;;;;;1.08;0.80;;;16.00;99.90;;;;;;5053424;28;20045;-71
2022/08/31 00:26:21;;;;;;;3.30;0.68;;;15.90;99.90;;;;;;5035722;28;20036;-73
2022/08/31 00:28:46;;;;;;;4.22;0.80;;;15.90;99.90;;;;;;5053571;28;20413;-73
2022/08/31 00:31:12;;;;;;;3.50;1.38;;;15.90;99.90;;;;;;5053782;28;20045;-73
2022/08/31 00:33:39;;;;;;;0.98;0.70;;;16.80;99.90;;;;;;5052267;28;20047;-73
2022/08/31 00:36:07;;;;;;;1.73;0.60;;;16.00;99.90;;;;;;5051970;28;20073;-73
2022/08/31 00:38:34;;;;;;;2.33;0.70;;;15.60;99.90;;;;;;5052334;28;20041;-73
2022/08/31 00:40:59;;;;;;;2.25;0.95;;;15.70;99.90;;;;;;5052428;28;20037;-73
2022/08/31 00:43:39;;;;;;;1.33;0.57;;;15.70;99.90;;;;;;5052114;28;20086;-73
2022/08/31 00:46:07;;;;;;;5.40;1.00;;;15.50;99.90;;;;;;5053217;28;20033;-73
2022/08/31 00:48:37;;;;;;;1.25;0.77;;;15.50;99.90;;;;;;5051961;28;20037;-73
2022/08/31 00:51:03;;;;;;;1.20;0.90;;;15.40;99.90;;;;;;5052070;28;20048;-73
2022/08/31 00:53:29;;;;;;;1.17;0.90;;;15.50;99.90;;;;;;5053319;28;20486;-73
2022/08/31 00:55:55;;;;;;;2.20;0.88;;;15.30;99.90;;;;;;5051970;28;20255;-73
2022/08/31 00:58:21;;;;;;;2.75;1.00;;;15.30;99.90;;;;;;5035560;28;20154;-73
2022/08/31 01:00:47;;;;;;;4.32;1.23;;;15.40;99.90;;;;;;5051975;28;20083;-73
2022/08/31 01:03:14;;;;;;;1.73;0.85;;;15.20;99.90;;;;;;5051823;28;20056;-73
2022/08/31 01:05:41;;;;;;;1.70;0.95;;;15.30;99.90;;;;;;5051793;28;20060;-73
2022/08/31 01:08:07;;;;;;;1.50;0.95;;;15.20;99.90;;;;;;5052480;28;20055;-74
2022/08/31 01:10:37;;;;;;;0.98;0.80;;;15.30;99.90;;;;;;5052347;28;20045;-73
2022/08/31 01:13:04;;;;;;;1.65;0.80;;;16.10;99.90;;;;;;5054082;28;20033;-74
2022/08/31 01:15:31;;;;;;;1.55;0.70;;;15.20;99.90;;;;;;5059518;28;20047;-75
2022/08/31 01:18:00;;;;;;;2.95;0.93;;;15.30;99.90;;;;;;5062692;28;20056;-74
2022/08/31 01:20:55;;;;;;;3.55;0.80;;;15.80;99.90;;;;;;5074562;28;20040;-74
2022/08/31 01:23:23;;;;;;;2.88;1.10;;;15.20;99.90;;;;;;5065356;28;20044;-73
2022/08/31 01:25:51;;;;;;;4.65;0.80;;;15.20;99.90;;;;;;5052494;28;20443;-73
2022/08/31 01:28:16;;;;;;;1.35;0.90;;;15.10;99.90;;;;;;5051094;28;20033;-73
2022/08/31 01:30:55;;;;;;;2.40;1.25;;;15.20;99.90;;;;;;5051450;28;20384;-73
2022/08/31 01:33:21;;;;;;;1.23;0.73;;;15.10;99.90;;;;;;5051351;28;20041;-73
2022/08/31 01:35:46;;;;;;;1.73;0.85;;;15.00;99.90;;;;;;5034391;28;20434;-73
2022/08/31 01:38:12;;;;;;;1.40;0.80;;;15.20;99.90;;;;;;5051428;28;20041;-73
2022/08/31 01:40:45;;;;;;;3.60;0.90;;;15.10;99.90;;;;;;5052304;28;20040;-73
2022/08/31 01:43:11;;;;;;;1.65;0.90;;;15.10;99.90;;;;;;5034638;28;20486;-73
2022/08/31 01:45:37;;;;;;;1.00;0.80;;;15.20;99.90;;;;;;5052077;28;20044;-73
2022/08/31 01:48:02;;;;;;;2.60;0.80;;;15.50;99.90;;;;;;5050905;28;20037;-73
2022/08/31 01:50:28;;;;;;;1.23;0.75;;;15.20;99.90;;;;;;5052240;28;20120;-73
2022/08/31 01:52:54;;;;;;;0.90;0.88;;;15.20;99.90;;;;;;5050878;28;20065;-73
2022/08/31 01:55:19;;;;;;;1.88;0.90;;;15.70;99.90;;;;;;5051726;28;20515;-73
2022/08/31 01:57:45;;;;;;;7.38;1.33;;;15.10;99.90;;;;;;5052062;28;20102;-73
2022/08/31 02:00:11;;;;;;;0.50;0.50;;;16.10;99.90;;;;;;5050648;28;20041;-75
2022/08/31 02:02:36;;;;;;;1.27;0.77;;;15.20;99.90;;;;;;5050753;28;20037;-73
2022/08/31 02:05:03;;;;;;;1.38;0.80;;;15.00;99.90;;;;;;5050388;28;20557;-73
2022/08/31 02:07:28;;;;;;;2.35;0.85;;;15.10;99.90;;;;;;5051995;28;20375;-73
2022/08/31 02:09:54;;;;;;;1.60;0.80;;;15.30;99.90;;;;;;5050482;28;20128;-73
2022/08/31 02:12:19;;;;;;;2.17;0.93;;;15.00;99.90;;;;;;5051831;28;20381;-73
2022/08/31 02:14:45;;;;;;;0.77;0.75;;;14.90;99.90;;;;;;5050340;28;20059;-73
2022/08/31 02:17:11;;;;;;;1.65;0.95;;;14.80;99.90;;;;;;5050648;28;20127;-73
2022/08/31 02:19:36;;;;;;;1.63;0.80;;;14.90;99.90;;;;;;5033239;28;20044;-73
2022/08/31 02:22:02;;;;;;;1.67;0.77;;;14.80;99.90;;;;;;5050573;28;20179;-73
2022/08/31 02:24:27;;;;;;;2.95;0.63;;;14.50;99.90;;;;;;5050267;28;20037;-73
2022/08/31 02:26:53;;;;;;;2.55;0.70;;;14.60;99.90;;;;;;5050347;28;20053;-73
2022/08/31 02:29:18;;;;;;;1.02;0.85;;;14.50;99.90;;;;;;5069009;22;20407;-72
2022/08/31 02:31:44;;;;;;;1.52;1.00;;;14.70;99.90;;;;;;5030987;28;20069;-72
2022/08/31 02:34:10;;;;;;;1.33;0.82;;;14.50;99.90;;;;;;5030623;28;20124;-71
2022/08/31 02:36:35;;;;;;;3.05;0.90;;;14.60;99.90;;;;;;5030831;28;20033;-72
2022/08/31 02:39:01;;;;;;;1.80;0.80;;;14.50;99.90;;;;;;5032357;28;20046;-72
2022/08/31 02:41:27;;;;;;;0.65;0.60;;;14.50;99.90;;;;;;5031862;28;20041;-72
2022/08/31 02:43:52;;;;;;;0.73;0.50;;;14.30;99.90;;;;;;5030410;28;20045;-70
2022/08/31 02:46:18;;;;;;;1.02;0.80;;;14.50;99.90;;;;;;5031886;28;20515;-72
2022/08/31 02:48:44;;;;;;;1.90;0.70;;;14.30;99.90;;;;;;5031489;28;20410;-72
2022/08/31 02:51:10;;;;;;;1.15;0.80;;;14.30;99.90;;;;;;5030581;28;20049;-72
2022/08/31 02:53:37;;;;;;;1.25;0.63;;;14.30;99.90;;;;;;5031658;28;20091;-72
2022/08/31 02:56:04;;;;;;;1.48;0.93;;;14.30;99.90;;;;;;5030460;28;20099;-71
2022/08/31 02:58:30;;;;;;;3.75;0.70;;;14.10;99.90;;;;;;5030593;28;20044;-72
2022/08/31 03:00:55;;;;;;;1.88;0.80;;;14.10;99.90;;;;;;5030306;28;20057;-72
2022/08/31 03:03:21;;;;;;;1.02;0.60;;;14.10;99.90;;;;;;5030264;28;20045;-71
2022/08/31 03:05:48;;;;;;;2.45;1.00;;;14.20;99.90;;;;;;5030294;28;20067;-71
2022/08/31 03:08:14;;;;;;;3.75;0.70;;;13.90;99.90;;;;;;5031583;28;20457;-71
2022/08/31 03:10:39;;;;;;;0.85;0.70;;;14.20;99.90;;;;;;5030489;28;20107;-71
2022/08/31 03:13:05;;;;;;;2.70;0.95;;;14.00;99.90;;;;;;5030359;28;20095;-71
2022/08/31 03:15:31;;;;;;;1.38;0.82;;;14.00;99.90;;;;;;5029975;28;20073;-71
2022/08/31 03:17:57;;;;;;;1.13;0.90;;;13.90;99.90;;;;;;5030288;28;20045;-72
2022/08/31 03:20:25;;;;;;;1.17;0.90;;;14.00;99.90;;;;;;5030060;28;20041;-71
2022/08/31 03:22:51;;;;;;;0.70;0.70;;;13.80;99.90;;;;;;5031368;28;20038;-72
2022/08/31 03:25:18;;;;;;;1.70;0.70;;;14.00;99.90;;;;;;5029729;28;20052;-72
2022/08/31 03:27:45;;;;;;;1.42;0.90;;;14.00;99.90;;;;;;5029914;28;20056;-72
2022/08/31 03:30:13;;;;;;;0.90;0.80;;;13.70;99.90;;;;;;5030865;28;20048;-72
2022/08/31 03:32:39;;;;;;;1.30;0.90;;;14.00;99.90;;;;;;5033986;28;20072;-71
2022/08/31 03:35:05;;;;;;;1.55;0.98;;;13.90;99.90;;;;;;5033654;28;20064;-72
2022/08/31 03:37:31;;;;;;;1.00;0.90;;;13.60;99.90;;;;;;5034983;28;20044;-72
2022/08/31 03:39:57;;;;;;;3.92;1.05;;;13.80;99.90;;;;;;5033824;28;20064;-72
2022/08/31 03:42:24;;;;;;;2.35;0.93;;;13.90;99.90;;;;;;5035097;28;20506;-72
2022/08/31 03:44:49;;;;;;;1.52;0.80;;;13.90;99.90;;;;;;5034714;28;20098;-72
2022/08/31 03:47:15;;;;;;;1.70;0.90;;;13.70;99.90;;;;;;5017149;28;20128;-71
2022/08/31 03:49:42;;;;;;;1.65;0.80;;;13.70;99.90;;;;;;5034637;28;20040;-71
2022/08/31 03:52:08;;;;;;;2.67;1.00;;;13.60;99.90;;;;;;5034671;28;20511;-71
2022/08/31 03:54:34;;;;;;;2.75;1.05;;;13.80;99.90;;;;;;5033100;28;20123;-72
2022/08/31 03:57:00;;;;;;;1.20;0.93;;;13.70;99.90;;;;;;5033354;28;20042;-72
2022/08/31 03:59:25;;;;;;;1.25;0.95;;;13.70;99.90;;;;;;5034730;28;20409;-71
2022/08/31 04:01:51;;;;;;;0.80;0.80;;;13.50;99.90;;;;;;5033345;28;20047;-72
2022/08/31 04:04:17;;;;;;;2.67;1.00;;;13.90;99.90;;;;;;5034237;28;20065;-72
2022/08/31 04:06:43;;;;;;;3.10;1.00;;;13.70;99.90;;;;;;5034432;28;20080;-71
2022/08/31 04:09:10;;;;;;;1.88;0.75;;;13.70;99.90;;;;;;5034515;28;20061;-72
2022/08/31 04:11:39;;;;;;;3.15;0.90;;;13.70;99.90;;;;;;5034567;28;20100;-72
2022/08/31 04:14:05;;;;;;;1.80;1.17;;;13.60;99.90;;;;;;5033057;28;20503;-72
2022/08/31 04:16:32;;;;;;;2.08;1.15;;;13.60;99.90;;;;;;5033164;28;20077;-71
2022/08/31 04:18:59;;;;;;;1.98;0.70;;;13.50;99.90;;;;;;5034271;28;20045;-72
2022/08/31 04:21:26;;;;;;;1.38;1.00;;;13.60;99.90;;;;;;5034085;28;20415;-72
2022/08/31 04:23:53;;;;;;;1.52;1.20;;;13.50;99.90;;;;;;5034021;28;20107;-71
2022/08/31 04:26:24;;;;;;;1.33;0.93;;;13.40;99.90;;;;;;5034241;28;20045;-72
2022/08/31 04:28:50;;;;;;;2.67;1.33;;;13.50;99.90;;;;;;5038409;28;20038;-72
2022/08/31 04:31:18;;;;;;;3.05;1.10;;;13.60;99.90;;;;;;5052272;28;20077;-72
2022/08/31 04:33:44;;;;;;;3.13;1.05;;;13.30;99.90;;;;;;5045324;28;20041;-71
2022/08/31 04:36:15;;;;;;;1.30;1.10;;;13.40;99.90;;;;;;5037783;28;20041;-72
2022/08/31 04:38:42;;;;;;;5.97;1.27;;;13.50;99.90;;;;;;5034823;28;20116;-72
2022/08/31 04:41:09;;;;;;;3.03;0.90;;;13.50;99.90;;;;;;5033523;28;20049;-71
2022/08/31 04:43:38;;;;;;;3.50;1.30;;;13.40;99.90;;;;;;5033312;28;20033;-71
2022/08/31 04:46:05;;;;;;;2.70;1.13;;;13.50;99.90;;;;;;5032152;28;20094;-72
2022/08/31 04:48:31;;;;;;;7.13;2.42;;;13.40;99.90;;;;;;5033582;28;20037;-72
2022/08/31 04:51:05;;;;;;;2.38;1.92;;;13.50;99.90;;;;;;5032551;28;20040;-72
2022/08/31 04:53:31;;;;;;;2.08;1.40;;;13.40;99.90;;;;;;5032287;28;20041;-72
2022/08/31 04:55:57;;;;;;;3.65;1.80;;;;;;;;;;5031987;28;20072;-72
2022/08/31 04:58:23;;;;;;;2.95;1.45;;;13.40;99.90;;;;;;5032376;28;20055;-71
2022/08/31 05:00:50;;;;;;;2.20;1.30;;;13.50;99.90;;;;;;5032344;28;20491;-72
2022/08/31 05:03:17;;;;;;;1.30;1.00;;;13.30;99.90;;;;;;5033354;28;20076;-71
2022/08/31 05:05:45;;;;;;;1.23;1.10;;;13.50;99.90;;;;;;5031829;28;20049;-71
2022/08/31 05:08:11;;;;;;;2.78;1.02;;;13.40;99.90;;;;;;5031990;28;20072;-71
2022/08/31 05:10:39;;;;;;;2.80;1.40;;;13.40;99.90;;;;;;5033294;28;20041;-72
2022/08/31 05:13:05;;;;;;;3.63;1.23;;;13.30;99.90;;;;;;5033258;28;20041;-72
2022/08/31 05:15:31;;;;;;;1.90;1.50;;;13.20;99.90;;;;;;5032919;28;20083;-71
2022/08/31 05:17:56;;;;;;;12.15;1.23;;;13.30;99.90;;;;;;5032220;28;20132;-71
2022/08/31 05:20:22;;;;;;;4.30;1.67;;;13.50;99.90;;;;;;5033019;28;20120;-72
2022/08/31 05:22:48;;;;;;;3.95;1.40;;;13.30;99.90;;;;;;5033463;28;20041;-72
2022/08/31 05:25:13;;;;;;;2.47;1.20;;;13.40;99.90;;;;;;5033142;28;20513;-72
2022/08/31 05:27:40;;;;;;;1.77;1.30;;;13.30;99.90;;;;;;5032029;28;20046;-72
2022/08/31 05:30:07;;;;;;;5.53;1.60;;;13.50;99.90;;;;;;5032745;28;20048;-72
2022/08/31 05:32:33;;;;;;;4.53;1.80;;;13.60;99.90;;;;;;5032806;28;20037;-72
2022/08/31 05:34:59;;;;;;;3.42;1.38;;;13.60;99.90;;;;;;5031240;28;20063;-72
2022/08/31 05:37:25;;;;;;;3.40;1.55;;;13.70;99.90;;;;;;5031738;28;20406;-71
2022/08/31 05:39:51;;;;;;;2.90;1.63;;;13.70;99.90;;;;;;5015111;28;20045;-71
2022/08/31 05:42:19;;;;;;;2.60;1.63;;;13.80;99.90;;;;;;5032783;28;20517;-72
2022/08/31 05:44:45;;;;;;;2.22;1.00;;;14.00;99.90;;;;;;5032280;28;20511;-72
2022/08/31 05:47:10;;;;;;;2.17;1.20;;;14.00;99.90;;;;;;5032746;28;20069;-72
2022/08/31 05:49:37;;;;;;;3.90;1.25;;;14.20;99.90;;;;;;5031110;28;20048;-71
2022/08/31 05:52:04;;;;;;;3.25;1.40;;;14.20;99.90;;;;;;5032616;28;20072;-71
2022/08/31 05:54:33;;;;;;;5.03;1.98;;;14.20;99.90;;;;;;5032053;28;20045;-72
2022/08/31 05:56:59;;;;;;;4.18;1.60;;;14.30;99.90;;;;;;5034991;28;20037;-71
2022/08/31 05:59:24;;;;;;;3.38;1.30;;;14.30;99.90;;;;;;5034847;28;20048;-72
2022/08/31 06:01:50;;;;;;;1.83;1.35;;;14.30;99.90;;;;;;5027128;28;20112;-71
2022/08/31 06:04:16;;;;;;;8.10;1.55;;;14.40;99.90;;;;;;5034216;28;20484;-71
2022/08/31 06:06:42;;;;;;;1.63;1.27;;;14.40;99.90;;;;;;5033542;28;20095;-71
2022/08/31 06:09:08;;;;;;;2.30;1.38;;;14.50;99.90;;;;;;5036370;28;20503;-72
2022/08/31 06:11:38;;;;;;;3.03;1.38;;;14.60;99.90;;;;;;5032581;28;20043;-70
2022/08/31 06:14:04;;;;;;;3.30;1.33;;;14.80;99.90;;;;;;5039209;28;20041;-71
2022/08/31 06:16:31;;;;;;;1.75;1.17;;;14.80;99.90;;;;;;5026478;28;20511;-71
2022/08/31 06:18:58;;;;;;;1.17;0.90;;;14.90;99.90;;;;;;5027007;28;20041;-71
2022/08/31 06:21:27;;;;;;;1.67;1.40;;;14.90;99.90;;;;;;5028721;28;20037;-71
2022/08/31 06:23:58;;;;;;;1.73;1.23;;;15.10;99.90;;;;;;5019040;28;20103;-70
2022/08/31 06:26:26;;;;;;;4.47;1.58;;;15.00;99.90;;;;;;5023361;28;20045;-71
2022/08/31 06:28:54;;;;;;;2.75;2.03;;;15.20;99.90;;;;;;5029477;28;20091;-71
2022/08/31 06:31:25;;;;;;;3.05;1.42;;;15.30;99.90;;;;;;5030645;28;20064;-70
2022/08/31 06:33:52;;;;;;;1.98;1.48;;;15.50;99.90;;;;;;5032133;28;20037;-73
2022/08/31 06:36:20;;;;;;;3.78;1.25;;;15.30;99.90;;;;;;5032070;28;20056;-73
2022/08/31 06:38:46;;;;;;;3.13;1.25;;;15.60;99.90;;;;;;5031831;28;20080;-70
2022/08/31 06:41:17;;;;;;;1.77;0.90;;;15.60;99.90;;;;;;5031709;28;20497;-70
2022/08/31 06:43:44;;;;;;;4.22;1.20;;;15.70;99.90;;;;;;5031797;28;20044;-70
2022/08/31 06:46:11;;;;;;;3.45;1.42;;;15.80;99.90;;;;;;5030641;28;20510;-70
2022/08/31 06:48:37;;;;;;;4.35;1.40;;;15.90;99.90;;;;;;5030465;28;20487;-70
2022/08/31 06:51:05;;;;;;;3.88;1.00;;;15.80;99.90;;;;;;5031629;28;20045;-71
2022/08/31 06:53:32;;;;;;;4.60;1.00;;;16.00;99.90;;;;;;5031465;28;20037;-70
2022/08/31 06:56:03;;;;;;;2.80;0.90;;;16.20;99.90;;;;;;5030110;28;20046;-70
2022/08/31 06:58:28;;;;;;;2.10;0.75;;;16.30;99.90;;;;;;5030364;28;20045;-74
2022/08/31 07:00:57;;;;;;;1.15;0.93;;;16.20;99.90;;;;;;5030483;28;20403;-72
2022/08/31 07:03:23;;;;;;;4.78;1.40;;;16.40;99.90;;;;;;5030292;28;20148;-70
2022/08/31 07:05:51;;;;;;;1.17;0.98;;;16.50;99.90;;;;;;5032359;28;20107;-70
2022/08/31 07:08:18;;;;;;;1.30;0.73;;;16.60;99.90;;;;;;5034488;28;20117;-73
2022/08/31 07:10:45;;;;;;;3.55;0.77;;;16.80;99.90;;;;;;5035734;28;20441;-73
2022/08/31 07:13:10;;;;;;;0.60;0.55;;;16.80;99.90;;;;;;5034264;28;20116;-72
2022/08/31 07:15:36;;;;;;;3.88;0.75;;;16.70;99.90;;;;;;5033846;28;20113;-72
2022/08/31 07:18:01;;;;;;;3.63;1.08;;;16.90;99.90;;;;;;5035489;28;20041;-72
2022/08/31 07:20:27;;;;;;;2.65;0.95;;;18.80;99.90;;;;;;5034210;28;20046;-73
2022/08/31 07:22:52;;;;;;;1.63;0.65;;;17.10;99.90;;;;;;5035729;28;20041;-71
2022/08/31 07:25:18;;;;;;;3.63;0.68;;;17.20;99.90;;;;;;5035177;28;20037;-72
2022/08/31 07:27:44;;;;;;;1.27;0.80;;;17.30;99.90;;;;;;5034341;28;20041;-71
2022/08/31 07:30:11;;;;;;;1.52;0.68;;;17.20;99.90;;;;;;5032544;28;20080;-72
2022/08/31 07:32:37;;;;;;;3.63;0.85;;;17.50;99.90;;;;;;5032632;28;20044;-71
2022/08/31 07:35:04;;;;;;;3.03;1.20;;;17.70;99.90;;;;;;5017218;28;20034;-73
2022/08/31 07:43:03;;;;;;;2.15;1.27;;;17.80;99.90;;;;;;5013913;28;20053;-71
2022/08/31 07:45:29;;;;;;;1.10;0.50;;;17.90;99.90;;;;;;4997200;28;20042;-72
2022/08/31 07:47:56;;;;;;;6.32;1.25;;;17.60;99.90;;;;;;5015128;28;20054;-72
2022/08/31 07:50:23;;;;;;;4.50;1.20;;;18.10;99.90;;;;;;5030880;28;20080;-72
2022/08/31 07:52:53;;;;;;;2.53;0.80;;;18.10;99.90;;;;;;5033457;28;20491;-72
2022/08/31 07:55:23;;;;;;;6.65;1.40;;;18.30;99.90;;;;;;5034495;28;20067;-72
2022/08/31 07:57:50;;;;;;;5.13;1.17;;;18.30;99.90;;;;;;5033586;28;20048;-72
2022/08/31 08:00:23;;;;;;;8.27;0.90;;;18.40;99.90;;;;;;5034710;28;20041;-73
2022/08/31 08:02:49;;;;;;;1.70;0.75;;;18.60;99.90;;;;;;5051826;28;20056;-74
2022/08/31 08:05:20;;;;;;;3.50;0.82;;;19.30;99.90;;;;;;5058145;28;20021;-75
2022/08/31 08:07:51;;;;;;;3.30;0.82;;;18.60;99.90;;;;;;5038230;28;20506;-72
2022/08/31 08:10:20;;;;;;;1.40;0.88;;;19.10;99.90;;;;;;5033362;28;20130;-72
2022/08/31 08:12:51;;;;;;;2.58;0.75;;;18.80;99.90;;;;;;5034229;28;20133;-72
2022/08/31 08:15:17;;;;;;;3.40;0.55;;;18.70;99.90;;;;;;5033016;28;20049;-72
2022/08/31 08:17:42;;;;;;;0.63;0.60;;;19.10;99.90;;;;;;5016489;28;20083;-72
2022/08/31 08:20:08;;;;;;;2.38;0.68;;;19.20;99.90;;;;;;5032860;28;20033;-72
2022/08/31 08:22:38;;;;;;;0.85;0.50;;;19.00;99.90;;;;;;5034106;28;20399;-72
2022/08/31 08:25:05;;;;;;;0.95;0.50;;;19.00;99.90;;;;;;5031148;28;20080;-73
2022/08/31 08:27:31;;;;;;;2.08;0.70;;;19.00;99.90;;;;;;5013100;28;20042;-72
2022/08/31 08:29:57;;;;;;;0.65;0.50;;;19.10;99.90;;;;;;5048493;22;20045;-69
2022/08/31 08:32:24;;;;;;;1.38;0.60;;;19.10;99.90;;;;;;5053398;28;20040;-69
2022/08/31 08:34:50;;;;;;;1.20;0.68;;;20.00;99.90;;;;;;5051864;28;20045;-69
2022/08/31 08:37:15;;;;;;;1.58;1.02;;;19.40;99.90;;;;;;5053466;28;20037;-69
2022/08/31 08:39:41;;;;;;;2.15;1.00;;;19.30;99.90;;;;;;5040116;28;20063;-69
2022/08/31 08:42:10;;;;;;;4.38;1.25;;;20.30;99.90;;;;;;5072316;28;20040;-69
2022/08/31 08:44:37;;;;;;;4.63;0.85;;;19.40;99.90;;;;;;5073239;28;20375;-69
2022/08/31 08:47:06;;;;;;;2.25;1.13;;;19.40;99.90;;;;;;5072137;28;20045;-69
2022/08/31 08:49:42;;;;;;;3.65;1.35;;;19.40;99.70;;;;;;5073143;28;20047;-69
2022/08/31 08:52:20;;;;;;;1.42;0.95;;;19.50;99.80;;;;;;5071964;28;20343;-70
2022/08/31 08:54:47;;;;;;;3.33;1.00;;;19.60;99.50;;;;;;5071879;28;20402;-69
2022/08/31 08:57:28;;;;;;;3.22;0.90;;;19.80;99.70;;;;;;5059189;28;20082;-68
2022/08/31 09:00:01;;;;;;;2.75;0.50;;;19.70;99.60;;;;;;5049083;28;20068;-69
2022/08/31 09:02:56;;;;;;;1.02;0.68;;;20.30;99.90;;;;;;5063990;28;20502;-69
2022/08/31 09:05:50;;;;;;;1.02;0.75;;;19.80;99.30;;;;;;5033120;28;20499;-69
2022/08/31 09:08:24;;;;;;;1.83;0.57;;;20.10;99.10;;;;;;5060528;28;20033;-69
2022/08/31 09:11:08;;;;;;;2.25;0.50;;;19.90;99.00;;;;;;5072931;28;20040;-69
2022/08/31 09:13:52;;;;;;;3.05;0.60;;;20.30;99.20;;;;;;5052044;28;20032;-69
2022/08/31 09:16:39;;;;;;;2.67;0.60;;;20.60;99.30;;;;;;5058529;28;20041;-69
2022/08/31 09:19:17;;;;;;;3.33;0.93;;;20.50;99.90;;;;;;5063743;28;20113;-69
2022/08/31 09:21:51;;;;;;;0.93;0.60;;;21.30;99.90;;;;;;5063291;28;20044;-68
2022/08/31 09:24:21;;;;;;;2.60;1.00;;;20.40;99.90;;;;;;5056722;28;20116;-69
2022/08/31 09:27:03;;;;;;;3.85;1.40;;;20.60;99.90;;;;;;5050832;28;20119;-69
2022/08/31 09:29:31;;;;;;;1.58;1.10;;;20.60;99.80;;;;;;5071700;28;20094;-69
2022/08/31 09:32:02;;;;;;;1.95;0.63;;;20.70;99.90;;;;;;5050849;28;20044;-70
2022/08/31 09:34:35;;;;;;;4.72;1.05;;;20.60;99.90;;;;;;5066606;28;20037;-69
2022/08/31 09:37:25;;;;;;;2.35;0.68;;;20.80;99.90;;;;;;5033206;28;20110;-69
2022/08/31 09:39:52;;;;;;;1.40;0.50;;;21.10;99.90;;;;;;5051567;28;20051;-70
2022/08/31 09:42:30;;;;;;;1.55;0.45;;;20.80;99.90;;;;;;5067143;28;20036;-70
2022/08/31 09:45:10;;;;;;;0.93;0.60;;;21.20;99.90;;;;;;5033053;28;20502;-70
2022/08/31 09:47:54;;;;;;;1.83;0.80;;;20.90;99.90;;;;;;5051078;28;20036;-70
2022/08/31 09:50:35;;;;;;;2.15;0.68;;;20.90;99.90;;;;;;5049137;28;20041;-67
2022/08/31 09:56:15;;;;;;;1.58;0.63;;;21.30;99.90;;;;;;5066719;28;20071;-69
2022/08/31 09:59:01;;;;;;;0.40;0.32;;;21.40;98.50;;;;;;5062160;28;20090;-70
2022/08/31 10:01:45;;;;;;;2.42;0.52;;;21.60;98.40;;;;;;5062364;28;20093;-70
2022/08/31 10:04:16;;;;;;;1.05;0.85;;;21.70;98.90;;;;;;5050371;28;20033;-70
2022/08/31 10:06:45;;;;;;;2.38;0.80;;;22.20;99.30;;;;;;5052503;28;20036;-70
2022/08/31 10:09:49;;;;;;;2.35;0.95;;;21.70;98.40;;;;;;5070672;28;20090;-69
2022/08/31 10:12:21;;;;;;;3.10;0.90;;;21.90;98.30;;;;;;5070042;28;20128;-71
2022/08/31 10:14:53;;;;;;;5.35;0.98;;;22.20;99.00;;;;;;5069349;28;20068;-71
2022/08/31 10:17:29;;;;;;;1.48;0.60;;;22.10;99.00;;;;;;5052542;28;20067;-71
2022/08/31 10:20:29;;;;;;;1.58;0.60;;;22.20;98.70;;;;;;5061963;28;20806;-72
2022/08/31 10:23:07;;;;;;;4.00;0.65;;;22.00;98.30;;;;;;5069124;28;20040;-72
2022/08/31 10:25:41;;;;;;;1.35;0.60;;;22.20;99.10;;;;;;5064464;28;20093;-71
2022/08/31 10:28:24;;;;;;;3.22;0.85;;;22.20;98.70;;;;;;5064278;28;20037;-70
2022/08/31 10:30:58;;;;;;;1.58;0.60;;;22.00;98.40;;;;;;5050357;28;20049;-71
2022/08/31 10:36:38;;;;;;;4.50;0.98;;;22.00;97.80;;;;;;5068109;28;20045;-73
2022/08/31 10:39:33;;;;;;;1.80;0.60;;;22.20;98.40;;;;;;5042431;28;20064;-72
2022/08/31 10:42:04;;;;;;;2.83;0.63;;;21.90;97.80;;;;;;5066269;28;20052;-70
2022/08/31 10:44:35;;;;;;;1.35;0.68;;;22.10;98.10;;;;;;5050425;28;20049;-71
2022/08/31 10:47:04;;;;;;;2.40;0.63;;;22.10;97.90;;;;;;5040207;28;20056;-70
2022/08/31 10:49:34;;;;;;;1.30;0.60;;;21.90;98.00;;;;;;5049266;28;20123;-70
2022/08/31 10:52:33;;;;;;;0.82;0.75;;;22.20;98.60;;;;;;5051810;28;20052;-70
2022/08/31 10:55:27;;;;;;;0.88;0.55;;;22.10;98.00;;;;;;5059345;28;20044;-70
2022/08/31 10:58:20;;;;;;;1.63;0.60;;;21.90;97.60;;;;;;5061330;28;20045;-71
2022/08/31 11:01:05;;;;;;;2.08;0.77;;;22.70;98.30;;;;;;5061025;28;20080;-72
2022/08/31 11:03:54;;;;;;;2.55;1.02;;;22.00;98.10;;;;;;5076322;28;20052;-70
2022/08/31 11:06:58;;;;;;;0.73;0.57;;;22.40;98.10;;;;;;5061129;28;20055;-71
2022/08/31 11:09:48;;;;;;;1.65;0.93;;;22.30;97.70;;;;;;5043405;28;20063;-71
2022/08/31 11:12:20;;;;;;;1.38;0.80;;;22.00;97.60;;;;;;5060985;28;20063;-71
2022/08/31 11:15:12;;;;;;;6.97;1.30;;;22.50;98.80;;;;;;5074590;28;20076;-71
2022/08/31 11:17:54;;;;;;;2.00;0.68;;;22.40;98.10;;;;;;5080589;28;20441;-70
2022/08/31 11:20:26;;;;;;;0.70;0.43;;;22.30;97.50;;;;;;5074941;28;20460;-71
2022/08/31 11:23:12;;;;;;;1.02;0.60;;;22.40;97.60;;;;;;5062632;28;20040;-71
2022/08/31 11:25:59;;;;;;;1.30;0.60;;;22.40;97.90;;;;;;5043734;28;20032;-71
2022/08/31 11:28:39;;;;;;;0.68;0.68;;;22.30;98.00;;;;;;5068889;28;20486;-73
2022/08/31 11:31:22;;;;;;;1.33;0.55;;;22.40;98.40;;;;;;5062557;28;20447;-71
2022/08/31 11:33:52;;;;;;;2.58;0.40;;;22.30;98.20;;;;;;5050074;28;20041;-72
2022/08/31 11:36:48;;;;;;;0.55;0.40;;;23.10;97.70;;;;;;5031703;28;20041;-72
2022/08/31 11:39:34;;;;;;;1.55;1.05;;;23.10;96.20;;;;;;5083861;28;20074;-71
2022/08/31 11:42:11;;;;;;;1.35;1.05;;;23.00;96.30;;;;;;5066364;28;20059;-71
2022/08/31 11:44:38;;;;;;;0.93;0.52;;;23.00;96.30;;;;;;5045484;28;20033;-71
2022/08/31 11:47:28;;;;;;;1.13;0.70;;;23.00;96.80;;;;;;5045913;28;20055;-71
2022/08/31 11:50:32;;;;;;;1.05;0.55;;;22.70;96.50;;;;;;5047768;28;20498;-71
2022/08/31 11:52:59;;;;;;;1.27;0.40;;;22.80;96.60;;;;;;5027669;28;20448;-71
2022/08/31 11:55:44;;;;;;;0.85;0.50;;;22.80;96.60;;;;;;5065370;28;20040;-72
2022/08/31 11:58:15;;;;;;;1.80;0.45;;;23.20;96.80;;;;;;5052051;28;20053;-71
2022/08/31 12:00:49;;;;;;;3.35;0.50;;;22.60;96.50;;;;;;5053886;28;20063;-71
2022/08/31 12:03:34;;;;;;;1.52;0.80;;;22.90;97.00;;;;;;5053161;28;20044;-70
2022/08/31 12:05:59;;;;;;;1.95;0.55;;;22.70;96.50;;;;;;5051496;28;20037;-71
2022/08/31 12:08:31;;;;;;;1.20;0.60;;;23.60;97.20;;;;;;5053683;28;20040;-71
2022/08/31 12:11:15;;;;;;;1.92;0.82;;;22.90;97.00;;;;;;5056681;28;20041;-70
2022/08/31 12:14:12;;;;;;;2.40;0.50;;;22.80;97.00;;;;;;5070366;28;20032;-70
2022/08/31 12:16:50;;;;;;;3.22;0.60;;;22.70;96.10;;;;;;5053856;28;20394;-72
2022/08/31 12:25:34;;;;;;;1.73;0.60;;;22.80;96.90;;;;;;5056427;28;20040;-70
2022/08/31 12:28:17;;;;;;;2.33;0.63;;;22.60;96.80;;;;;;5072905;28;20083;-71
2022/08/31 12:30:49;;;;;;;0.68;0.40;;;23.00;97.40;;;;;;5071001;28;20120;-71
2022/08/31 12:33:22;;;;;;;2.40;0.70;;;23.10;96.90;;;;;;5088472;28;20121;-71
2022/08/31 12:36:09;;;;;;;2.40;0.70;;;23.20;97.20;;;;;;5066326;28;20029;-71
2022/08/31 12:38:35;;;;;;;2.05;0.63;;;22.70;96.60;;;;;;5051302;28;20130;-70
2022/08/31 12:41:02;;;;;;;1.65;0.50;;;23.00;97.60;;;;;;5051039;28;20494;-70
2022/08/31 12:43:47;;;;;;;3.47;0.60;;;23.30;97.20;;;;;;5051642;28;20068;-70
2022/08/31 12:46:40;;;;;;;1.75;0.85;;;23.20;96.50;;;;;;5059880;28;20044;-71
2022/08/31 12:49:28;;;;;;;3.20;0.85;;;23.30;98.40;;;;;;5047859;28;20037;-71
2022/08/31 12:52:27;;;;;;;2.90;0.60;;;23.20;95.40;;;;;;5052686;28;20037;-71
2022/08/31 12:55:14;;;;;;;1.35;0.50;;;23.10;95.20;;;;;;5050186;28;20067;-71
2022/08/31 12:58:04;;;;;;;2.13;0.50;;;23.20;95.70;;;;;;5052720;28;20045;-71
2022/08/31 13:00:33;;;;;;;1.80;0.50;;;23.20;95.20;;;;;;5051470;28;20049;-71
2022/08/31 13:03:20;;;;;;;1.80;0.60;;;23.30;96.10;;;;;;5033472;28;20049;-72
2022/08/31 13:06:05;;;;;;;1.67;0.43;;;23.50;95.40;;;;;;5052095;28;20116;-72
2022/08/31 13:08:41;;;;;;;1.20;0.50;;;23.60;94.10;;;;;;5067608;28;20111;-71
2022/08/31 13:11:16;;;;;;;0.95;0.52;;;23.70;94.00;;;;;;5050952;28;20041;-71
2022/08/31 13:13:42;;;;;;;1.20;0.60;;;23.70;93.80;;;;;;5034060;28;20449;-71
2022/08/31 13:16:08;;;;;;;1.65;0.40;;;23.70;93.90;;;;;;5056851;28;20033;-71
2022/08/31 13:18:34;;;;;;;1.38;0.47;;;23.60;93.40;;;;;;5053261;28;20119;-71
2022/08/31 13:21:04;;;;;;;1.30;0.50;;;23.60;93.30;;;;;;5051865;28;20340;-71
2022/08/31 13:23:33;;;;;;;2.08;0.60;;;23.70;93.30;;;;;;5050752;28;20049;-70
2022/08/31 13:26:19;;;;;;;1.48;0.60;;;24.10;93.50;;;;;;5061754;28;20169;-71
2022/08/31 13:28:57;;;;;;;0.70;0.60;;;23.40;92.50;;;;;;5054169;28;20044;-71